sensor_id;sensor_type;location;lat;lon;timestamp;P1;durP1;ratioP1;P2;durP2;ratioP2
6424;SDS011;12193;42.642;23.384;2024-03-23T00:52:07;8.57;;;4.63;;
6424;SDS011;12193;42.642;23.384;2024-03-23T00:54:34;9.50;;;4.70;;
6424;SDS011;12193;42.642;23.384;2024-03-23T00:57:00;8.20;;;4.90;;
6424;SDS011;12193;42.642;23.384;2024-03-23T00:59:27;10.77;;;5.23;;
6424;SDS011;12193;42.642;23.384;2024-03-23T01:01:53;10.80;;;5.13;;
6424;SDS011;12193;42.642;23.384;2024-03-23T01:04:20;10.13;;;5.90;;
6424;SDS011;12193;42.642;23.384;2024-03-23T01:10:12;9.57;;;5.20;;
6424;SDS011;12193;42.642;23.384;2024-03-23T01:12:39;11.00;;;5.07;;
6424;SDS011;12193;42.642;23.384;2024-03-23T01:15:05;8.60;;;4.97;;
6424;SDS011;12193;42.642;23.384;2024-03-23T01:17:32;6.53;;;3.23;;
6424;SDS011;12193;42.642;23.384;2024-03-23T01:19:59;5.07;;;3.47;;
6424;SDS011;12193;42.642;23.384;2024-03-23T01:22:25;8.70;;;4.47;;
6424;SDS011;12193;42.642;23.384;2024-03-23T01:24:51;10.00;;;5.83;;
6424;SDS011;12193;42.642;23.384;2024-03-23T01:27:21;7.93;;;5.00;;
6424;SDS011;12193;42.642;23.384;2024-03-23T01:29:47;8.13;;;4.70;;
6424;SDS011;12193;42.642;23.384;2024-03-23T01:32:14;7.13;;;3.70;;
6424;SDS011;12193;42.642;23.384;2024-03-23T01:34:40;8.10;;;4.97;;
6424;SDS011;12193;42.642;23.384;2024-03-23T01:37:07;8.83;;;4.93;;
6424;SDS011;12193;42.642;23.384;2024-03-23T01:39:33;9.80;;;5.57;;
6424;SDS011;12193;42.642;23.384;2024-03-23T01:41:59;8.63;;;4.57;;
6424;SDS011;12193;42.642;23.384;2024-03-23T01:44:28;8.07;;;4.97;;
6424;SDS011;12193;42.642;23.384;2024-03-23T01:46:55;8.13;;;4.60;;
6424;SDS011;12193;42.642;23.384;2024-03-23T01:49:21;6.03;;;3.97;;
6424;SDS011;12193;42.642;23.384;2024-03-23T01:51:48;9.17;;;4.87;;
6424;SDS011;12193;42.642;23.384;2024-03-23T01:54:15;10.53;;;5.03;;
6424;SDS011;12193;42.642;23.384;2024-03-23T01:56:41;11.20;;;4.93;;
6424;SDS011;12193;42.642;23.384;2024-03-23T01:59:08;8.23;;;4.87;;
6424;SDS011;12193;42.642;23.384;2024-03-23T02:01:37;12.50;;;5.63;;
6424;SDS011;12193;42.642;23.384;2024-03-23T02:04:04;10.47;;;5.00;;
6424;SDS011;12193;42.642;23.384;2024-03-23T02:06:30;10.87;;;5.50;;
6424;SDS011;12193;42.642;23.384;2024-03-23T02:08:57;9.73;;;5.70;;
6424;SDS011;12193;42.642;23.384;2024-03-23T02:11:24;9.73;;;4.90;;
6424;SDS011;12193;42.642;23.384;2024-03-23T02:13:50;8.53;;;4.80;;
6424;SDS011;12193;42.642;23.384;2024-03-23T02:16:17;6.73;;;4.13;;
6424;SDS011;12193;42.642;23.384;2024-03-23T02:18:46;10.97;;;5.67;;
6424;SDS011;12193;42.642;23.384;2024-03-23T02:21:12;11.80;;;4.63;;
6424;SDS011;12193;42.642;23.384;2024-03-23T02:23:41;14.00;;;6.17;;
6424;SDS011;12193;42.642;23.384;2024-03-23T02:26:08;7.17;;;4.20;;
6424;SDS011;12193;42.642;23.384;2024-03-23T02:28:34;10.00;;;5.37;;
6424;SDS011;12193;42.642;23.384;2024-03-23T02:31:01;8.83;;;4.73;;
6424;SDS011;12193;42.642;23.384;2024-03-23T02:33:27;12.67;;;5.67;;
6424;SDS011;12193;42.642;23.384;2024-03-23T02:35:55;8.57;;;4.50;;
6424;SDS011;12193;42.642;23.384;2024-03-23T02:38:22;8.67;;;5.10;;
6424;SDS011;12193;42.642;23.384;2024-03-23T02:40:51;12.30;;;6.40;;
6424;SDS011;12193;42.642;23.384;2024-03-23T02:43:18;13.53;;;6.23;;
6424;SDS011;12193;42.642;23.384;2024-03-23T02:45:44;10.43;;;5.20;;
6424;SDS011;12193;42.642;23.384;2024-03-23T02:48:11;10.77;;;5.50;;
6424;SDS011;12193;42.642;23.384;2024-03-23T02:50:37;8.20;;;4.57;;
6424;SDS011;12193;42.642;23.384;2024-03-23T02:53:04;9.23;;;5.13;;
6424;SDS011;12193;42.642;23.384;2024-03-23T02:55:30;15.63;;;5.37;;
6424;SDS011;12193;42.642;23.384;2024-03-23T02:57:59;11.93;;;5.47;;
6424;SDS011;12193;42.642;23.384;2024-03-23T03:00:27;10.73;;;4.70;;
6424;SDS011;12193;42.642;23.384;2024-03-23T03:02:53;8.63;;;4.87;;
6424;SDS011;12193;42.642;23.384;2024-03-23T03:05:20;7.80;;;4.50;;
6424;SDS011;12193;42.642;23.384;2024-03-23T03:07:46;8.63;;;4.83;;
6424;SDS011;12193;42.642;23.384;2024-03-23T03:10:13;12.17;;;4.97;;
6424;SDS011;12193;42.642;23.384;2024-03-23T03:12:40;8.50;;;4.63;;
6424;SDS011;12193;42.642;23.384;2024-03-23T03:15:09;6.60;;;3.97;;
6424;SDS011;12193;42.642;23.384;2024-03-23T03:17:35;10.20;;;4.83;;
6424;SDS011;12193;42.642;23.384;2024-03-23T03:20:02;7.27;;;4.30;;
6424;SDS011;12193;42.642;23.384;2024-03-23T03:22:29;6.97;;;3.97;;
6424;SDS011;12193;42.642;23.384;2024-03-23T03:24:56;8.03;;;4.27;;
6424;SDS011;12193;42.642;23.384;2024-03-23T03:27:22;9.60;;;4.50;;
6424;SDS011;12193;42.642;23.384;2024-03-23T03:29:49;8.83;;;4.50;;
6424;SDS011;12193;42.642;23.384;2024-03-23T03:32:18;6.50;;;3.90;;
6424;SDS011;12193;42.642;23.384;2024-03-23T03:34:44;9.13;;;4.47;;
6424;SDS011;12193;42.642;23.384;2024-03-23T03:37:11;6.80;;;4.40;;
6424;SDS011;12193;42.642;23.384;2024-03-23T03:39:37;6.40;;;3.70;;
6424;SDS011;12193;42.642;23.384;2024-03-23T03:42:04;5.53;;;3.30;;
6424;SDS011;12193;42.642;23.384;2024-03-23T03:44:31;8.17;;;4.30;;
6424;SDS011;12193;42.642;23.384;2024-03-23T03:46:57;8.57;;;3.87;;
6424;SDS011;12193;42.642;23.384;2024-03-23T03:49:26;7.00;;;3.60;;
6424;SDS011;12193;42.642;23.384;2024-03-23T03:51:53;8.37;;;4.23;;
6424;SDS011;12193;42.642;23.384;2024-03-23T03:54:20;8.37;;;3.43;;
6424;SDS011;12193;42.642;23.384;2024-03-23T03:59:22;9.60;;;5.27;;
6424;SDS011;12193;42.642;23.384;2024-03-23T04:01:49;8.13;;;4.43;;
6424;SDS011;12193;42.642;23.384;2024-03-23T04:04:15;7.23;;;3.47;;
6424;SDS011;12193;42.642;23.384;2024-03-23T04:06:45;8.87;;;4.00;;
6424;SDS011;12193;42.642;23.384;2024-03-23T04:09:12;7.20;;;3.87;;
6424;SDS011;12193;42.642;23.384;2024-03-23T04:11:38;8.03;;;4.37;;
6424;SDS011;12193;42.642;23.384;2024-03-23T04:14:05;9.73;;;4.93;;
6424;SDS011;12193;42.642;23.384;2024-03-23T04:16:33;10.30;;;4.63;;
6424;SDS011;12193;42.642;23.384;2024-03-23T04:19:00;5.53;;;3.17;;
6424;SDS011;12193;42.642;23.384;2024-03-23T04:21:26;7.07;;;3.40;;
6424;SDS011;12193;42.642;23.384;2024-03-23T04:23:56;9.23;;;4.20;;
6424;SDS011;12193;42.642;23.384;2024-03-23T04:26:22;11.30;;;5.03;;
6424;SDS011;12193;42.642;23.384;2024-03-23T04:28:48;8.10;;;4.30;;
6424;SDS011;12193;42.642;23.384;2024-03-23T04:31:15;5.27;;;3.10;;
6424;SDS011;12193;42.642;23.384;2024-03-23T04:33:42;9.87;;;4.60;;
6424;SDS011;12193;42.642;23.384;2024-03-23T04:36:08;6.33;;;3.43;;
6424;SDS011;12193;42.642;23.384;2024-03-23T04:38:34;5.93;;;3.53;;
6424;SDS011;12193;42.642;23.384;2024-03-23T04:41:04;9.27;;;5.27;;
6424;SDS011;12193;42.642;23.384;2024-03-23T04:43:30;12.23;;;5.07;;
6424;SDS011;12193;42.642;23.384;2024-03-23T04:45:57;9.47;;;4.50;;
6424;SDS011;12193;42.642;23.384;2024-03-23T04:48:24;8.87;;;4.17;;
6424;SDS011;12193;42.642;23.384;2024-03-23T04:50:54;7.80;;;4.50;;
6424;SDS011;12193;42.642;23.384;2024-03-23T04:53:21;11.27;;;5.60;;
6424;SDS011;12193;42.642;23.384;2024-03-23T04:55:47;8.83;;;4.57;;
6424;SDS011;12193;42.642;23.384;2024-03-23T04:58:17;10.80;;;5.07;;
6424;SDS011;12193;42.642;23.384;2024-03-23T05:00:43;5.93;;;3.90;;
6424;SDS011;12193;42.642;23.384;2024-03-23T05:03:10;10.77;;;5.23;;
6424;SDS011;12193;42.642;23.384;2024-03-23T05:05:36;8.67;;;4.63;;
6424;SDS011;12193;42.642;23.384;2024-03-23T05:08:03;10.33;;;5.07;;
6424;SDS011;12193;42.642;23.384;2024-03-23T05:10:30;9.80;;;5.00;;
6424;SDS011;12193;42.642;23.384;2024-03-23T05:12:57;10.77;;;6.13;;
6424;SDS011;12193;42.642;23.384;2024-03-23T05:15:26;11.13;;;5.43;;
6424;SDS011;12193;42.642;23.384;2024-03-23T05:17:53;8.87;;;5.13;;
6424;SDS011;12193;42.642;23.384;2024-03-23T05:20:19;9.07;;;5.90;;
6424;SDS011;12193;42.642;23.384;2024-03-23T05:22:47;13.07;;;6.53;;
6424;SDS011;12193;42.642;23.384;2024-03-23T05:25:14;12.27;;;6.13;;
6424;SDS011;12193;42.642;23.384;2024-03-23T05:27:40;13.60;;;6.10;;
6424;SDS011;12193;42.642;23.384;2024-03-23T05:30:07;8.57;;;5.00;;
6424;SDS011;12193;42.642;23.384;2024-03-23T05:32:37;9.87;;;5.50;;
6424;SDS011;12193;42.642;23.384;2024-03-23T05:35:04;11.37;;;5.47;;
6424;SDS011;12193;42.642;23.384;2024-03-23T05:37:31;10.70;;;5.87;;
6424;SDS011;12193;42.642;23.384;2024-03-23T05:39:57;10.40;;;5.27;;
6424;SDS011;12193;42.642;23.384;2024-03-23T05:42:24;9.93;;;5.07;;
6424;SDS011;12193;42.642;23.384;2024-03-23T05:44:51;10.10;;;4.67;;
6424;SDS011;12193;42.642;23.384;2024-03-23T05:47:18;13.97;;;5.83;;
6424;SDS011;12193;42.642;23.384;2024-03-23T05:49:48;12.57;;;5.73;;
6424;SDS011;12193;42.642;23.384;2024-03-23T05:52:14;9.10;;;5.20;;
6424;SDS011;12193;42.642;23.384;2024-03-23T05:54:40;10.10;;;5.67;;
6424;SDS011;12193;42.642;23.384;2024-03-23T05:57:08;11.07;;;5.47;;
6424;SDS011;12193;42.642;23.384;2024-03-23T05:59:35;9.07;;;5.57;;
6424;SDS011;12193;42.642;23.384;2024-03-23T06:02:01;9.30;;;5.73;;
6424;SDS011;12193;42.642;23.384;2024-03-23T06:04:28;11.00;;;6.17;;
6424;SDS011;12193;42.642;23.384;2024-03-23T06:06:57;10.50;;;5.67;;
6424;SDS011;12193;42.642;23.384;2024-03-23T06:09:23;9.77;;;5.57;;
6424;SDS011;12193;42.642;23.384;2024-03-23T06:11:50;10.63;;;5.50;;
6424;SDS011;12193;42.642;23.384;2024-03-23T06:14:17;12.63;;;5.77;;
6424;SDS011;12193;42.642;23.384;2024-03-23T06:16:43;12.43;;;5.73;;
6424;SDS011;12193;42.642;23.384;2024-03-23T06:19:09;12.83;;;5.23;;
6424;SDS011;12193;42.642;23.384;2024-03-23T06:21:36;11.17;;;5.83;;
6424;SDS011;12193;42.642;23.384;2024-03-23T06:24:05;13.10;;;5.60;;
6424;SDS011;12193;42.642;23.384;2024-03-23T06:26:32;8.40;;;5.23;;
6424;SDS011;12193;42.642;23.384;2024-03-23T06:28:58;10.87;;;6.10;;
6424;SDS011;12193;42.642;23.384;2024-03-23T06:31:25;11.60;;;6.73;;
6424;SDS011;12193;42.642;23.384;2024-03-23T06:33:51;13.43;;;7.17;;
6424;SDS011;12193;42.642;23.384;2024-03-23T06:36:18;16.23;;;8.60;;
6424;SDS011;12193;42.642;23.384;2024-03-23T06:38:44;19.00;;;8.67;;
6424;SDS011;12193;42.642;23.384;2024-03-23T06:41:13;18.03;;;8.73;;
6424;SDS011;12193;42.642;23.384;2024-03-23T06:43:40;17.70;;;9.50;;
6424;SDS011;12193;42.642;23.384;2024-03-23T06:46:07;18.97;;;9.20;;
6424;SDS011;12193;42.642;23.384;2024-03-23T06:48:33;21.33;;;9.07;;
6424;SDS011;12193;42.642;23.384;2024-03-23T06:51:00;16.70;;;9.17;;
6424;SDS011;12193;42.642;23.384;2024-03-23T06:53:26;18.80;;;8.77;;
6424;SDS011;12193;42.642;23.384;2024-03-23T06:55:53;17.50;;;9.53;;
6424;SDS011;12193;42.642;23.384;2024-03-23T06:58:23;18.37;;;9.10;;
6424;SDS011;12193;42.642;23.384;2024-03-23T07:00:50;25.57;;;9.33;;
6424;SDS011;12193;42.642;23.384;2024-03-23T07:03:17;19.43;;;9.57;;
6424;SDS011;12193;42.642;23.384;2024-03-23T07:05:43;18.43;;;8.37;;
6424;SDS011;12193;42.642;23.384;2024-03-23T07:08:10;13.83;;;8.27;;
6424;SDS011;12193;42.642;23.384;2024-03-23T07:10:38;18.77;;;8.53;;
6424;SDS011;12193;42.642;23.384;2024-03-23T07:13:05;17.80;;;8.43;;
6424;SDS011;12193;42.642;23.384;2024-03-23T07:15:34;15.77;;;8.60;;
6424;SDS011;12193;42.642;23.384;2024-03-23T07:18:01;14.17;;;8.30;;
6424;SDS011;12193;42.642;23.384;2024-03-23T07:20:27;16.00;;;9.03;;
6424;SDS011;12193;42.642;23.384;2024-03-23T07:22:55;21.67;;;8.17;;
6424;SDS011;12193;42.642;23.384;2024-03-23T07:25:21;18.80;;;8.17;;
6424;SDS011;12193;42.642;23.384;2024-03-23T07:27:47;15.23;;;8.10;;
6424;SDS011;12193;42.642;23.384;2024-03-23T07:30:14;16.00;;;8.47;;
6424;SDS011;12193;42.642;23.384;2024-03-23T07:32:43;13.70;;;8.60;;
6424;SDS011;12193;42.642;23.384;2024-03-23T07:35:10;18.20;;;9.37;;
6424;SDS011;12193;42.642;23.384;2024-03-23T07:37:36;15.03;;;7.87;;
6424;SDS011;12193;42.642;23.384;2024-03-23T07:40:03;24.57;;;8.93;;
6424;SDS011;12193;42.642;23.384;2024-03-23T07:42:31;17.73;;;8.20;;
6424;SDS011;12193;42.642;23.384;2024-03-23T07:44:57;19.97;;;8.37;;
6424;SDS011;12193;42.642;23.384;2024-03-23T07:47:24;17.07;;;8.23;;
6424;SDS011;12193;42.642;23.384;2024-03-23T07:49:53;13.53;;;8.23;;
6424;SDS011;12193;42.642;23.384;2024-03-23T07:52:19;14.70;;;8.30;;
6424;SDS011;12193;42.642;23.384;2024-03-23T07:54:46;18.23;;;8.23;;
6424;SDS011;12193;42.642;23.384;2024-03-23T07:57:12;15.87;;;8.40;;
6424;SDS011;12193;42.642;23.384;2024-03-23T07:59:38;16.73;;;8.90;;
6424;SDS011;12193;42.642;23.384;2024-03-23T08:02:05;19.00;;;8.43;;
6424;SDS011;12193;42.642;23.384;2024-03-23T08:04:31;19.07;;;9.33;;
6424;SDS011;12193;42.642;23.384;2024-03-23T08:07:00;17.60;;;9.00;;
6424;SDS011;12193;42.642;23.384;2024-03-23T08:09:27;16.03;;;9.07;;
6424;SDS011;12193;42.642;23.384;2024-03-23T08:11:54;21.00;;;8.67;;
6424;SDS011;12193;42.642;23.384;2024-03-23T08:14:20;15.63;;;8.50;;
6424;SDS011;12193;42.642;23.384;2024-03-23T08:16:47;20.57;;;9.87;;
6424;SDS011;12193;42.642;23.384;2024-03-23T08:19:14;25.67;;;9.70;;
6424;SDS011;12193;42.642;23.384;2024-03-23T08:21:41;21.37;;;9.50;;
6424;SDS011;12193;42.642;23.384;2024-03-23T08:24:10;18.27;;;9.80;;
6424;SDS011;12193;42.642;23.384;2024-03-23T08:26:36;22.60;;;9.50;;
6424;SDS011;12193;42.642;23.384;2024-03-23T08:29:03;20.80;;;10.00;;
6424;SDS011;12193;42.642;23.384;2024-03-23T08:31:30;23.97;;;9.43;;
6424;SDS011;12193;42.642;23.384;2024-03-23T08:33:56;22.83;;;9.90;;
6424;SDS011;12193;42.642;23.384;2024-03-23T08:36:23;47.13;;;11.50;;
6424;SDS011;12193;42.642;23.384;2024-03-23T08:38:49;29.13;;;11.23;;
6424;SDS011;12193;42.642;23.384;2024-03-23T08:41:19;25.03;;;9.90;;
6424;SDS011;12193;42.642;23.384;2024-03-23T08:43:45;20.73;;;9.70;;
6424;SDS011;12193;42.642;23.384;2024-03-23T08:46:13;21.17;;;9.63;;
6424;SDS011;12193;42.642;23.384;2024-03-23T08:48:41;21.40;;;9.77;;
6424;SDS011;12193;42.642;23.384;2024-03-23T08:51:10;21.10;;;9.87;;
6424;SDS011;12193;42.642;23.384;2024-03-23T08:53:38;19.03;;;9.83;;
6424;SDS011;12193;42.642;23.384;2024-03-23T08:56:05;20.33;;;9.80;;
6424;SDS011;12193;42.642;23.384;2024-03-23T08:58:35;18.10;;;9.10;;
6424;SDS011;12193;42.642;23.384;2024-03-23T09:01:03;22.37;;;8.97;;
6424;SDS011;12193;42.642;23.384;2024-03-23T09:03:34;19.17;;;9.00;;
6424;SDS011;12193;42.642;23.384;2024-03-23T09:06:02;18.73;;;9.07;;
6424;SDS011;12193;42.642;23.384;2024-03-23T09:08:32;15.07;;;8.67;;
6424;SDS011;12193;42.642;23.384;2024-03-23T09:11:00;15.77;;;8.10;;
6424;SDS011;12193;42.642;23.384;2024-03-23T09:13:29;16.40;;;8.73;;
6424;SDS011;12193;42.642;23.384;2024-03-23T09:15:58;15.07;;;8.30;;
6424;SDS011;12193;42.642;23.384;2024-03-23T09:18:25;16.47;;;8.57;;
6424;SDS011;12193;42.642;23.384;2024-03-23T09:20:52;14.37;;;7.73;;
6424;SDS011;12193;42.642;23.384;2024-03-23T09:23:19;18.57;;;8.43;;
6424;SDS011;12193;42.642;23.384;2024-03-23T09:25:45;14.73;;;8.20;;
6424;SDS011;12193;42.642;23.384;2024-03-23T09:28:12;16.87;;;7.97;;
6424;SDS011;12193;42.642;23.384;2024-03-23T09:30:38;14.93;;;8.47;;
6424;SDS011;12193;42.642;23.384;2024-03-23T09:33:08;17.70;;;8.70;;
6424;SDS011;12193;42.642;23.384;2024-03-23T09:35:36;14.60;;;8.50;;
6424;SDS011;12193;42.642;23.384;2024-03-23T09:38:03;17.83;;;8.30;;
6424;SDS011;12193;42.642;23.384;2024-03-23T09:40:30;17.53;;;8.47;;
6424;SDS011;12193;42.642;23.384;2024-03-23T09:42:57;15.73;;;7.90;;
6424;SDS011;12193;42.642;23.384;2024-03-23T09:45:26;14.37;;;7.70;;
6424;SDS011;12193;42.642;23.384;2024-03-23T09:47:54;15.77;;;7.87;;
6424;SDS011;12193;42.642;23.384;2024-03-23T09:50:24;12.97;;;7.73;;
6424;SDS011;12193;42.642;23.384;2024-03-23T09:52:50;17.33;;;7.00;;
6424;SDS011;12193;42.642;23.384;2024-03-23T09:55:17;15.47;;;7.80;;
6424;SDS011;12193;42.642;23.384;2024-03-23T09:57:44;16.07;;;8.50;;
6424;SDS011;12193;42.642;23.384;2024-03-23T10:00:11;16.67;;;8.73;;
6424;SDS011;12193;42.642;23.384;2024-03-23T10:02:38;13.43;;;7.33;;
6424;SDS011;12193;42.642;23.384;2024-03-23T10:05:05;16.00;;;7.53;;
6424;SDS011;12193;42.642;23.384;2024-03-23T10:07:50;11.47;;;6.80;;
6424;SDS011;12193;42.642;23.384;2024-03-23T10:10:17;16.10;;;7.33;;
6424;SDS011;12193;42.642;23.384;2024-03-23T10:12:44;13.70;;;6.80;;
6424;SDS011;12193;42.642;23.384;2024-03-23T10:15:15;15.30;;;6.60;;
6424;SDS011;12193;42.642;23.384;2024-03-23T10:17:44;13.23;;;7.20;;
6424;SDS011;12193;42.642;23.384;2024-03-23T10:20:11;12.00;;;6.50;;
6424;SDS011;12193;42.642;23.384;2024-03-23T10:22:37;12.73;;;7.00;;
6424;SDS011;12193;42.642;23.384;2024-03-23T10:25:10;9.83;;;6.70;;
6424;SDS011;12193;42.642;23.384;2024-03-23T10:27:37;10.70;;;6.93;;
6424;SDS011;12193;42.642;23.384;2024-03-23T10:30:08;15.37;;;6.90;;
6424;SDS011;12193;42.642;23.384;2024-03-23T10:32:35;9.47;;;6.50;;
6424;SDS011;12193;42.642;23.384;2024-03-23T10:35:14;10.37;;;6.83;;
6424;SDS011;12193;42.642;23.384;2024-03-23T10:37:42;14.77;;;6.30;;
6424;SDS011;12193;42.642;23.384;2024-03-23T10:40:12;10.77;;;6.67;;
6424;SDS011;12193;42.642;23.384;2024-03-23T10:42:39;11.83;;;6.27;;
6424;SDS011;12193;42.642;23.384;2024-03-23T10:45:06;12.07;;;5.80;;
6424;SDS011;12193;42.642;23.384;2024-03-23T10:47:35;12.77;;;6.80;;
6424;SDS011;12193;42.642;23.384;2024-03-23T10:50:02;10.90;;;7.13;;
6424;SDS011;12193;42.642;23.384;2024-03-23T10:52:30;12.90;;;6.60;;
6424;SDS011;12193;42.642;23.384;2024-03-23T10:54:56;13.30;;;6.83;;
6424;SDS011;12193;42.642;23.384;2024-03-23T10:57:29;14.47;;;7.63;;
6424;SDS011;12193;42.642;23.384;2024-03-23T11:00:02;10.97;;;6.77;;
6424;SDS011;12193;42.642;23.384;2024-03-23T11:02:30;11.37;;;6.97;;
6424;SDS011;12193;42.642;23.384;2024-03-23T11:04:56;9.43;;;6.60;;
6424;SDS011;12193;42.642;23.384;2024-03-23T11:07:29;11.97;;;6.83;;
6424;SDS011;12193;42.642;23.384;2024-03-23T11:09:57;11.77;;;6.80;;
6424;SDS011;12193;42.642;23.384;2024-03-23T11:12:30;12.10;;;7.13;;
6424;SDS011;12193;42.642;23.384;2024-03-23T11:14:58;13.30;;;7.03;;
6424;SDS011;12193;42.642;23.384;2024-03-23T11:17:27;14.13;;;7.03;;
6424;SDS011;12193;42.642;23.384;2024-03-23T11:19:54;10.83;;;6.97;;
6424;SDS011;12193;42.642;23.384;2024-03-23T11:25:16;11.77;;;7.40;;
6424;SDS011;12193;42.642;23.384;2024-03-23T11:27:46;15.67;;;8.33;;
6424;SDS011;12193;42.642;23.384;2024-03-23T11:30:14;12.13;;;7.57;;
6424;SDS011;12193;42.642;23.384;2024-03-23T11:32:45;14.17;;;7.67;;
6424;SDS011;12193;42.642;23.384;2024-03-23T11:35:24;14.67;;;6.90;;
6424;SDS011;12193;42.642;23.384;2024-03-23T11:38:02;15.07;;;6.53;;
6424;SDS011;12193;42.642;23.384;2024-03-23T11:40:32;17.33;;;7.97;;
6424;SDS011;12193;42.642;23.384;2024-03-23T11:43:02;11.37;;;6.73;;
6424;SDS011;12193;42.642;23.384;2024-03-23T11:45:33;15.30;;;7.77;;
6424;SDS011;12193;42.642;23.384;2024-03-23T11:48:01;15.00;;;8.03;;
6424;SDS011;12193;42.642;23.384;2024-03-23T11:50:31;14.43;;;7.17;;
6424;SDS011;12193;42.642;23.384;2024-03-23T11:53:08;19.90;;;7.70;;
6424;SDS011;12193;42.642;23.384;2024-03-23T11:55:39;12.90;;;7.40;;
6424;SDS011;12193;42.642;23.384;2024-03-23T11:58:10;12.07;;;7.27;;
6424;SDS011;12193;42.642;23.384;2024-03-23T12:00:37;13.47;;;7.23;;
6424;SDS011;12193;42.642;23.384;2024-03-23T12:03:05;16.73;;;8.17;;
6424;SDS011;12193;42.642;23.384;2024-03-23T12:05:32;11.83;;;6.90;;
6424;SDS011;12193;42.642;23.384;2024-03-23T12:10:48;12.47;;;7.23;;
6424;SDS011;12193;42.642;23.384;2024-03-23T12:13:19;15.27;;;7.97;;
6424;SDS011;12193;42.642;23.384;2024-03-23T12:15:47;10.77;;;7.43;;
6424;SDS011;12193;42.642;23.384;2024-03-23T12:18:15;14.20;;;7.93;;
6424;SDS011;12193;42.642;23.384;2024-03-23T12:20:42;14.47;;;7.37;;
6424;SDS011;12193;42.642;23.384;2024-03-23T12:23:09;13.27;;;7.53;;
6424;SDS011;12193;42.642;23.384;2024-03-23T12:25:36;14.27;;;7.20;;
6424;SDS011;12193;42.642;23.384;2024-03-23T12:28:03;16.87;;;7.00;;
6424;SDS011;12193;42.642;23.384;2024-03-23T12:30:35;14.63;;;7.50;;
6424;SDS011;12193;42.642;23.384;2024-03-23T12:33:04;12.77;;;7.33;;
6424;SDS011;12193;42.642;23.384;2024-03-23T12:35:31;12.40;;;7.27;;
6424;SDS011;12193;42.642;23.384;2024-03-23T12:37:58;13.57;;;7.70;;
6424;SDS011;12193;42.642;23.384;2024-03-23T12:40:24;16.80;;;7.00;;
6424;SDS011;12193;42.642;23.384;2024-03-23T12:42:51;11.17;;;7.00;;
6424;SDS011;12193;42.642;23.384;2024-03-23T12:45:17;10.63;;;7.03;;
6424;SDS011;12193;42.642;23.384;2024-03-23T12:47:46;16.03;;;7.07;;
6424;SDS011;12193;42.642;23.384;2024-03-23T12:50:13;15.83;;;7.07;;
6424;SDS011;12193;42.642;23.384;2024-03-23T12:52:40;12.40;;;6.87;;
6424;SDS011;12193;42.642;23.384;2024-03-23T12:55:07;13.47;;;7.00;;
6424;SDS011;12193;42.642;23.384;2024-03-23T12:57:33;11.17;;;6.20;;
6424;SDS011;12193;42.642;23.384;2024-03-23T13:00:00;10.03;;;5.83;;
6424;SDS011;12193;42.642;23.384;2024-03-23T13:02:26;14.60;;;6.37;;
6424;SDS011;12193;42.642;23.384;2024-03-23T13:04:55;8.80;;;4.97;;
6424;SDS011;12193;42.642;23.384;2024-03-23T13:07:22;6.70;;;4.10;;
6424;SDS011;12193;42.642;23.384;2024-03-23T13:09:50;10.30;;;5.20;;
6424;SDS011;12193;42.642;23.384;2024-03-23T13:12:17;11.07;;;5.37;;
6424;SDS011;12193;42.642;23.384;2024-03-23T13:14:44;8.27;;;4.80;;
6424;SDS011;12193;42.642;23.384;2024-03-23T13:17:11;8.93;;;4.60;;
6424;SDS011;12193;42.642;23.384;2024-03-23T13:19:37;7.37;;;3.70;;
6424;SDS011;12193;42.642;23.384;2024-03-23T13:22:06;5.73;;;3.67;;
6424;SDS011;12193;42.642;23.384;2024-03-23T13:24:33;5.37;;;3.70;;
6424;SDS011;12193;42.642;23.384;2024-03-23T13:27:00;8.30;;;4.00;;
6424;SDS011;12193;42.642;23.384;2024-03-23T13:29:26;7.00;;;3.77;;
6424;SDS011;12193;42.642;23.384;2024-03-23T13:31:53;6.57;;;3.60;;
6424;SDS011;12193;42.642;23.384;2024-03-23T13:34:19;9.63;;;3.47;;
6424;SDS011;12193;42.642;23.384;2024-03-23T13:36:46;6.17;;;3.90;;
6424;SDS011;12193;42.642;23.384;2024-03-23T13:39:16;7.47;;;3.60;;
6424;SDS011;12193;42.642;23.384;2024-03-23T13:41:43;9.20;;;3.40;;
6424;SDS011;12193;42.642;23.384;2024-03-23T13:44:11;8.03;;;3.13;;
6424;SDS011;12193;42.642;23.384;2024-03-23T13:46:39;5.53;;;2.90;;
6424;SDS011;12193;42.642;23.384;2024-03-23T13:49:05;7.33;;;3.10;;
6424;SDS011;12193;42.642;23.384;2024-03-23T13:51:32;4.33;;;2.67;;
6424;SDS011;12193;42.642;23.384;2024-03-23T13:53:59;4.53;;;3.10;;
6424;SDS011;12193;42.642;23.384;2024-03-23T13:56:29;4.20;;;2.80;;
6424;SDS011;12193;42.642;23.384;2024-03-23T13:58:56;6.83;;;2.47;;
6424;SDS011;12193;42.642;23.384;2024-03-23T14:01:23;4.50;;;2.97;;
6424;SDS011;12193;42.642;23.384;2024-03-23T14:03:50;3.53;;;2.73;;
6424;SDS011;12193;42.642;23.384;2024-03-23T14:06:16;2.90;;;2.10;;
6424;SDS011;12193;42.642;23.384;2024-03-23T14:08:43;4.97;;;1.90;;
6424;SDS011;12193;42.642;23.384;2024-03-23T14:11:09;3.20;;;2.30;;
6424;SDS011;12193;42.642;23.384;2024-03-23T14:13:38;3.03;;;2.20;;
6424;SDS011;12193;42.642;23.384;2024-03-23T14:16:05;4.40;;;2.70;;
6424;SDS011;12193;42.642;23.384;2024-03-23T14:18:32;7.60;;;3.33;;
6424;SDS011;12193;42.642;23.384;2024-03-23T14:20:59;5.27;;;3.80;;
6424;SDS011;12193;42.642;23.384;2024-03-23T14:23:26;8.23;;;3.97;;
6424;SDS011;12193;42.642;23.384;2024-03-23T14:25:53;8.70;;;3.50;;
6424;SDS011;12193;42.642;23.384;2024-03-23T14:28:20;3.23;;;2.20;;
6424;SDS011;12193;42.642;23.384;2024-03-23T14:30:49;3.73;;;2.10;;
6424;SDS011;12193;42.642;23.384;2024-03-23T14:33:16;10.97;;;2.00;;
6424;SDS011;12193;42.642;23.384;2024-03-23T14:35:43;5.23;;;2.03;;
6424;SDS011;12193;42.642;23.384;2024-03-23T14:38:17;2.27;;;1.70;;
6424;SDS011;12193;42.642;23.384;2024-03-23T14:40:43;3.67;;;1.50;;
6424;SDS011;12193;42.642;23.384;2024-03-23T14:43:10;4.03;;;1.80;;
6424;SDS011;12193;42.642;23.384;2024-03-23T14:45:37;2.77;;;1.80;;
6424;SDS011;12193;42.642;23.384;2024-03-23T14:48:06;3.20;;;1.80;;
6424;SDS011;12193;42.642;23.384;2024-03-23T14:50:33;3.10;;;1.87;;
6424;SDS011;12193;42.642;23.384;2024-03-23T14:53:00;3.47;;;1.80;;
6424;SDS011;12193;42.642;23.384;2024-03-23T14:55:27;4.47;;;1.70;;
6424;SDS011;12193;42.642;23.384;2024-03-23T14:57:53;2.97;;;1.87;;
6424;SDS011;12193;42.642;23.384;2024-03-23T15:00:20;3.07;;;2.10;;
6424;SDS011;12193;42.642;23.384;2024-03-23T15:02:46;2.67;;;2.07;;
6424;SDS011;12193;42.642;23.384;2024-03-23T15:05:15;3.97;;;2.10;;
6424;SDS011;12193;42.642;23.384;2024-03-23T15:07:42;3.93;;;2.33;;
6424;SDS011;12193;42.642;23.384;2024-03-23T15:10:09;2.73;;;2.10;;
6424;SDS011;12193;42.642;23.384;2024-03-23T15:12:35;3.33;;;1.90;;
6424;SDS011;12193;42.642;23.384;2024-03-23T15:15:02;2.57;;;1.83;;
6424;SDS011;12193;42.642;23.384;2024-03-23T15:17:29;2.00;;;1.80;;
6424;SDS011;12193;42.642;23.384;2024-03-23T15:19:55;3.07;;;1.97;;
6424;SDS011;12193;42.642;23.384;2024-03-23T15:22:24;2.07;;;1.73;;
6424;SDS011;12193;42.642;23.384;2024-03-23T15:24:51;2.30;;;1.83;;
6424;SDS011;12193;42.642;23.384;2024-03-23T15:27:17;3.23;;;2.40;;
6424;SDS011;12193;42.642;23.384;2024-03-23T15:29:44;2.73;;;1.97;;
6424;SDS011;12193;42.642;23.384;2024-03-23T15:32:10;4.00;;;2.00;;
6424;SDS011;12193;42.642;23.384;2024-03-23T15:34:37;1.53;;;1.40;;
6424;SDS011;12193;42.642;23.384;2024-03-23T15:37:03;4.10;;;1.70;;
6424;SDS011;12193;42.642;23.384;2024-03-23T15:39:32;3.20;;;1.60;;
6424;SDS011;12193;42.642;23.384;2024-03-23T15:41:59;7.03;;;2.80;;
6424;SDS011;12193;42.642;23.384;2024-03-23T15:44:26;2.63;;;1.97;;